createdAt,value
2019-01-10T00:00:11.567Z,2.27
2019-01-10T00:02:40.009Z,2.25
2019-01-10T00:05:10.510Z,2.25
2019-01-10T00:07:38.941Z,2.23
2019-01-10T00:10:10.150Z,2.22
2019-01-10T00:12:39.531Z,2.20
2019-01-10T00:15:11.045Z,2.17
2019-01-10T00:17:39.487Z,2.13
2019-01-10T00:20:10.754Z,2.11
2019-01-10T00:22:39.248Z,2.08
2019-01-10T00:25:10.159Z,2.05
2019-01-10T00:27:38.588Z,2.04
2019-01-10T00:30:10.365Z,2.01
2019-01-10T00:32:38.797Z,1.99
2019-01-10T00:35:08.800Z,1.98
2019-01-10T00:37:37.241Z,1.95
2019-01-10T00:40:09.116Z,1.95
2019-01-10T00:42:37.564Z,1.92
2019-01-10T00:45:11.454Z,1.88
2019-01-10T00:47:39.889Z,1.82
2019-01-10T00:50:11.856Z,1.76
2019-01-10T00:52:40.294Z,1.67
2019-01-10T00:55:08.750Z,1.62
2019-01-10T00:57:37.259Z,1.56
2019-01-10T01:00:17.256Z,1.48
2019-01-10T01:02:45.708Z,1.42
2019-01-10T01:05:15.195Z,1.36
2019-01-10T01:07:43.699Z,1.32
2019-01-10T01:10:23.860Z,1.30
2019-01-10T01:12:58.431Z,1.29
2019-01-10T01:15:22.480Z,1.28
2019-01-10T01:17:50.918Z,1.29
2019-01-10T01:20:24.154Z,1.29
2019-01-10T01:22:52.765Z,1.28
2019-01-10T01:25:21.205Z,1.30
2019-01-10T01:27:49.680Z,1.29
2019-01-10T01:30:23.514Z,1.31
2019-01-10T01:32:52.044Z,1.31
2019-01-10T01:35:21.739Z,1.30
2019-01-10T01:37:50.328Z,1.32
2019-01-10T01:40:20.205Z,1.34
2019-01-10T01:42:48.668Z,1.35
2019-01-10T01:45:18.652Z,1.38
2019-01-10T01:47:47.656Z,1.40
2019-01-10T01:50:20.960Z,1.43
2019-01-10T01:52:49.812Z,1.46
2019-01-10T01:55:18.244Z,1.46
2019-01-10T01:57:46.777Z,1.48
2019-01-10T02:00:18.087Z,1.49
2019-01-10T02:02:46.548Z,1.50
2019-01-10T02:05:15.358Z,1.49
2019-01-10T02:07:43.826Z,1.50
2019-01-10T02:10:15.763Z,1.50
2019-01-10T02:12:44.281Z,1.51
2019-01-10T02:15:14.247Z,1.53
2019-01-10T02:17:48.870Z,1.55
2019-01-10T02:20:13.443Z,1.57
2019-01-10T02:22:41.900Z,1.57
2019-01-10T02:25:12.489Z,1.58
2019-01-10T02:27:40.942Z,1.58
2019-01-10T02:30:15.174Z,1.57
2019-01-10T02:32:43.635Z,1.59
2019-01-10T02:35:12.339Z,1.59
2019-01-10T02:37:40.809Z,1.59
2019-01-10T02:40:09.822Z,1.59
2019-01-10T02:42:38.289Z,1.60
2019-01-10T02:45:12.277Z,1.59
2019-01-10T02:47:40.747Z,1.60
2019-01-10T02:50:12.341Z,1.60
2019-01-10T02:52:40.813Z,1.60
2019-01-10T02:55:09.978Z,1.60
2019-01-10T02:57:38.467Z,1.60
2019-01-10T03:00:11.245Z,1.61
2019-01-10T03:02:39.724Z,1.62
2019-01-10T03:05:08.907Z,1.61
2019-01-10T03:07:37.364Z,1.62
2019-01-10T03:10:11.731Z,1.62
2019-01-10T03:12:40.196Z,1.63
2019-01-10T03:15:09.005Z,1.62
2019-01-10T03:17:37.540Z,1.61
2019-01-10T03:20:09.293Z,1.58
2019-01-10T03:22:37.760Z,1.58
2019-01-10T03:25:07.746Z,1.55
2019-01-10T03:27:36.204Z,1.55
2019-01-10T03:30:07.955Z,1.55
2019-01-10T03:32:36.427Z,1.55
2019-01-10T03:35:06.894Z,1.54
2019-01-10T03:37:35.384Z,1.54
2019-01-10T03:40:06.718Z,1.51
2019-01-10T03:42:35.187Z,1.48
2019-01-10T03:45:04.596Z,1.45
2019-01-10T03:47:33.070Z,1.43
2019-01-10T03:50:01.505Z,1.40
2019-01-10T03:52:29.962Z,1.37
2019-01-10T03:54:58.397Z,1.34
2019-01-10T03:57:26.869Z,1.32
2019-01-10T03:59:55.302Z,1.30
2019-01-10T04:02:23.734Z,1.29
2019-01-10T04:04:52.201Z,1.29
2019-01-10T04:07:20.641Z,1.29
2019-01-10T04:09:49.110Z,1.29
2019-01-10T04:12:17.545Z,1.30
2019-01-10T04:14:46.005Z,1.31
2019-01-10T04:17:14.450Z,1.32
2019-01-10T04:19:42.923Z,1.32
2019-01-10T04:22:11.356Z,1.35
2019-01-10T04:24:39.821Z,1.36
2019-01-10T04:27:08.262Z,1.36
2019-01-10T04:29:36.736Z,1.38
2019-01-10T04:32:05.177Z,1.40
2019-01-10T04:34:33.646Z,1.41
2019-01-10T04:37:02.207Z,1.41
2019-01-10T04:39:30.631Z,1.41
2019-01-10T04:41:59.073Z,1.41
2019-01-10T04:44:27.533Z,1.40
2019-01-10T04:46:55.979Z,1.40
2019-01-10T04:49:24.521Z,1.38
2019-01-10T04:51:52.984Z,1.38
2019-01-10T04:54:21.445Z,1.39
2019-01-10T04:56:49.886Z,1.40
2019-01-10T04:59:18.348Z,1.43
2019-01-10T05:01:46.790Z,1.44
2019-01-10T05:04:15.259Z,1.46
2019-01-10T05:06:43.697Z,1.46
2019-01-10T05:09:12.164Z,1.46
2019-01-10T05:11:40.616Z,1.47
2019-01-10T05:14:16.409Z,1.47
2019-01-10T05:16:39.336Z,1.48
2019-01-10T05:19:07.794Z,1.50
2019-01-10T05:21:36.246Z,1.51
2019-01-10T05:24:04.962Z,1.51
2019-01-10T05:26:33.406Z,1.54
2019-01-10T05:29:01.875Z,1.55
2019-01-10T05:31:30.312Z,1.56
2019-01-10T05:34:02.499Z,1.58
2019-01-10T05:36:31.123Z,1.59
2019-01-10T05:38:59.597Z,1.58
2019-01-10T05:41:28.033Z,1.57
2019-01-10T05:43:56.494Z,1.56
2019-01-10T05:46:24.930Z,1.55
2019-01-10T05:48:53.665Z,1.52
2019-01-10T05:51:22.105Z,1.50
2019-01-10T05:53:50.545Z,1.49
2019-01-10T05:56:19.002Z,1.49
2019-01-10T05:58:47.440Z,1.48
2019-01-10T06:01:15.916Z,1.46
2019-01-10T06:03:52.947Z,1.46
2019-01-10T06:06:14.545Z,1.46
2019-01-10T06:08:42.979Z,1.48
2019-01-10T06:11:11.447Z,1.48
2019-01-10T06:13:39.882Z,1.46
2019-01-10T06:16:08.345Z,1.44
2019-01-10T06:18:36.787Z,1.42
2019-01-10T06:21:05.250Z,1.39
2019-01-10T06:23:34.270Z,1.33
2019-01-10T06:26:02.737Z,1.29
2019-01-10T06:28:31.176Z,1.25
2019-01-10T06:30:59.719Z,1.22
2019-01-10T06:33:28.154Z,1.21
2019-01-10T06:35:56.620Z,1.22
2019-01-10T06:38:25.060Z,1.24
2019-01-10T06:40:53.521Z,1.26
2019-01-10T06:43:22.129Z,1.28
2019-01-10T06:45:50.599Z,1.30
2019-01-10T06:48:19.036Z,1.32
2019-01-10T06:50:47.504Z,1.33
2019-01-10T06:53:15.941Z,1.33
2019-01-10T06:55:44.402Z,1.37
2019-01-10T06:58:12.934Z,1.39
2019-01-10T07:00:41.404Z,1.41
2019-01-10T07:03:09.844Z,1.43
2019-01-10T07:05:38.305Z,1.45
2019-01-10T07:08:06.745Z,1.47
2019-01-10T07:10:35.205Z,1.48
2019-01-10T07:13:03.651Z,1.50
2019-01-10T07:15:32.114Z,1.51
2019-01-10T07:18:00.557Z,1.53
2019-01-10T07:20:29.021Z,1.53
2019-01-10T07:22:57.532Z,1.54
2019-01-10T07:25:25.999Z,1.55
2019-01-10T07:27:56.588Z,1.56
2019-01-10T07:30:35.588Z,1.57
2019-01-10T07:32:56.124Z,1.57
2019-01-10T07:35:25.784Z,1.56
2019-01-10T07:37:55.041Z,1.57
2019-01-10T07:40:23.481Z,1.59
2019-01-10T07:42:52.387Z,1.60
2019-01-10T07:45:24.796Z,1.60
2019-01-10T07:47:53.247Z,1.62
2019-01-10T07:50:29.637Z,1.63
2019-01-10T07:52:58.096Z,1.64
2019-01-10T07:55:26.530Z,1.66
2019-01-10T07:57:54.990Z,1.69
2019-01-10T08:00:23.423Z,1.71
2019-01-10T08:02:51.937Z,1.72
2019-01-10T08:05:20.876Z,1.72
2019-01-10T08:07:49.344Z,1.73
2019-01-10T08:10:17.783Z,1.73
2019-01-10T08:12:46.689Z,1.72
2019-01-10T08:15:17.968Z,1.73
2019-01-10T08:17:46.433Z,1.73
2019-01-10T08:20:14.991Z,1.73
2019-01-10T08:22:43.591Z,1.74
2019-01-10T08:25:12.134Z,1.77
2019-01-10T08:27:40.599Z,1.77
2019-01-10T08:30:15.350Z,1.80
2019-01-10T08:32:43.813Z,1.80
2019-01-10T08:35:13.692Z,1.80
2019-01-10T08:37:42.265Z,1.80
2019-01-10T08:40:11.070Z,1.80
2019-01-10T08:42:39.538Z,1.80
2019-01-10T08:45:10.023Z,1.80
2019-01-10T08:47:38.472Z,1.82
2019-01-10T08:50:10.316Z,1.83
2019-01-10T08:52:38.773Z,1.85
2019-01-10T08:55:08.286Z,1.86
2019-01-10T08:57:36.757Z,1.87
2019-01-10T09:00:11.130Z,1.88
2019-01-10T09:02:39.589Z,1.90
2019-01-10T09:05:08.469Z,1.91
2019-01-10T09:07:36.938Z,1.91
2019-01-10T09:10:08.553Z,1.93
2019-01-10T09:12:37.021Z,1.94
2019-01-10T09:15:08.101Z,1.98
2019-01-10T09:17:36.564Z,2.00
2019-01-10T09:20:08.173Z,2.01
2019-01-10T09:22:36.626Z,2.05
2019-01-10T09:25:05.807Z,2.09
2019-01-10T09:27:34.337Z,2.10
2019-01-10T09:30:02.784Z,2.13
2019-01-10T09:32:31.248Z,2.16
2019-01-10T09:34:59.694Z,2.22
2019-01-10T09:37:28.156Z,2.25
2019-01-10T09:39:56.590Z,2.27
2019-01-10T09:42:25.056Z,2.30
2019-01-10T09:44:53.497Z,2.34
2019-01-10T09:47:21.964Z,2.38
2019-01-10T09:49:50.404Z,2.38
2019-01-10T09:52:18.845Z,2.38
2019-01-10T09:54:47.308Z,2.39
2019-01-10T09:57:15.890Z,2.40
2019-01-10T09:59:44.352Z,2.43
2019-01-10T10:02:12.793Z,2.46
2019-01-10T10:04:41.262Z,2.47
2019-01-10T10:07:09.700Z,2.48
2019-01-10T10:09:38.169Z,2.46
2019-01-10T10:12:06.766Z,2.45
2019-01-10T10:14:35.272Z,2.46
2019-01-10T10:17:03.665Z,2.46
2019-01-10T10:19:32.135Z,2.46
2019-01-10T10:22:00.575Z,2.48
2019-01-10T10:24:29.041Z,2.48
2019-01-10T10:26:57.830Z,2.50
2019-01-10T10:29:26.299Z,2.52
2019-01-10T10:31:54.739Z,2.55
2019-01-10T10:34:23.197Z,2.55
2019-01-10T10:36:51.700Z,2.57
2019-01-10T10:39:20.165Z,2.57
2019-01-10T10:41:48.598Z,2.57
2019-01-10T10:44:17.059Z,2.57
2019-01-10T10:46:45.501Z,2.57
2019-01-10T10:49:13.969Z,2.55
2019-01-10T10:51:42.414Z,2.57
2019-01-10T10:54:10.881Z,2.62
2019-01-10T10:56:39.321Z,2.62
2019-01-10T10:59:07.850Z,2.64
2019-01-10T11:01:36.314Z,2.70
2019-01-10T11:04:05.424Z,2.70
2019-01-10T11:06:33.865Z,2.71
2019-01-10T11:09:09.090Z,2.71
2019-01-10T11:11:32.497Z,2.73
2019-01-10T11:14:00.966Z,2.74
2019-01-10T11:16:29.405Z,2.75
2019-01-10T11:18:57.869Z,2.75
2019-01-10T11:21:26.311Z,2.75
2019-01-10T11:23:54.767Z,2.75
2019-01-10T11:26:23.211Z,2.76
2019-01-10T11:28:51.984Z,2.79
2019-01-10T11:31:20.433Z,2.81
2019-01-10T11:33:48.898Z,2.83
2019-01-10T11:36:17.330Z,2.85
2019-01-10T11:38:45.872Z,2.84
2019-01-10T11:41:14.307Z,2.89
2019-01-10T11:43:42.747Z,2.89
2019-01-10T11:46:19.218Z,2.87
2019-01-10T11:48:41.372Z,2.92
2019-01-10T11:51:09.843Z,2.96
2019-01-10T11:53:38.280Z,2.96
2019-01-10T11:56:07.017Z,2.96
2019-01-10T11:58:35.463Z,2.96
2019-01-10T12:01:04.177Z,2.98
2019-01-10T12:03:32.611Z,2.96
2019-01-10T12:06:01.077Z,2.96
2019-01-10T12:08:29.582Z,2.97
2019-01-10T12:10:58.061Z,2.94
2019-01-10T12:13:26.501Z,2.98
2019-01-10T12:15:54.968Z,3.00
2019-01-10T12:18:23.409Z,2.99
2019-01-10T12:20:51.866Z,3.00
2019-01-10T12:23:20.380Z,3.01
2019-01-10T12:25:48.843Z,3.00
2019-01-10T12:28:17.275Z,3.00
2019-01-10T12:30:45.895Z,3.00
2019-01-10T12:33:14.331Z,3.00
2019-01-10T12:35:42.864Z,2.96
2019-01-10T12:38:11.305Z,2.90
2019-01-10T12:40:39.768Z,2.90
2019-01-10T12:43:08.482Z,2.89
2019-01-10T12:45:37.204Z,2.89
2019-01-10T12:48:05.647Z,2.89
2019-01-10T12:50:34.381Z,2.89
2019-01-10T12:53:02.883Z,2.86
2019-01-10T12:55:31.352Z,2.84
2019-01-10T12:57:59.794Z,2.81
2019-01-10T13:00:28.263Z,2.80
2019-01-10T13:02:57.276Z,2.78
2019-01-10T13:05:25.742Z,2.76
2019-01-10T13:08:03.162Z,2.75
2019-01-10T13:10:24.374Z,2.72
2019-01-10T13:12:52.813Z,2.71
2019-01-10T13:15:23.621Z,2.71
2019-01-10T13:17:52.128Z,2.70
2019-01-10T13:20:20.666Z,2.69
2019-01-10T13:22:49.105Z,2.70
2019-01-10T13:25:19.184Z,2.69
2019-01-10T13:27:47.986Z,2.66
2019-01-10T13:30:21.136Z,2.66
2019-01-10T13:32:49.863Z,2.67
2019-01-10T13:35:18.304Z,2.69
2019-01-10T13:37:46.798Z,2.69
2019-01-10T13:40:16.017Z,2.72
2019-01-10T13:42:44.507Z,2.72
2019-01-10T13:45:14.579Z,2.72
2019-01-10T13:47:44.849Z,2.75
2019-01-10T13:50:19.128Z,2.75
2019-01-10T13:52:47.766Z,2.76
2019-01-10T13:55:18.144Z,2.76
2019-01-10T13:57:46.682Z,2.76
2019-01-10T14:00:20.825Z,2.76
2019-01-10T14:02:49.374Z,2.76
2019-01-10T14:05:17.787Z,2.74
2019-01-10T14:07:46.427Z,2.73
2019-01-10T14:10:16.669Z,2.73
2019-01-10T14:12:45.422Z,2.73
2019-01-10T14:15:17.001Z,2.70
2019-01-10T14:17:45.537Z,2.68
2019-01-10T14:20:14.549Z,2.65
2019-01-10T14:22:43.082Z,2.60
2019-01-10T14:25:11.791Z,2.54
2019-01-10T14:27:40.525Z,2.53
2019-01-10T14:30:18.361Z,2.53
2019-01-10T14:32:46.831Z,2.55
2019-01-10T14:35:15.446Z,2.55
2019-01-10T14:37:43.905Z,2.55
2019-01-10T14:40:12.914Z,2.57
2019-01-10T14:42:41.376Z,2.56
2019-01-10T14:45:15.377Z,2.55
2019-01-10T14:47:43.842Z,2.56
2019-01-10T14:50:13.022Z,2.55
2019-01-10T14:52:41.488Z,2.57
2019-01-10T14:55:13.027Z,2.55
2019-01-10T14:57:41.489Z,2.53
2019-01-10T15:00:13.243Z,2.53
2019-01-10T15:02:41.778Z,2.51
2019-01-10T15:05:10.282Z,2.50
2019-01-10T15:07:38.741Z,2.50
2019-01-10T15:10:08.928Z,2.50
2019-01-10T15:12:37.382Z,2.47
2019-01-10T15:15:09.233Z,2.48
2019-01-10T15:17:37.698Z,2.48
2019-01-10T15:20:09.309Z,2.46
2019-01-10T15:22:37.895Z,2.43
2019-01-10T15:25:06.573Z,2.42
2019-01-10T15:27:35.033Z,2.37
2019-01-10T15:32:33.825Z,2.29
2019-01-10T15:35:02.261Z,2.24
2019-01-10T15:37:30.724Z,2.17
2019-01-10T15:39:59.167Z,2.12
2019-01-10T15:42:27.736Z,2.09
2019-01-10T15:44:56.177Z,2.05
2019-01-10T15:47:24.640Z,2.02
2019-01-10T15:49:53.082Z,2.00
2019-01-10T15:52:21.543Z,1.98
2019-01-10T15:54:49.974Z,1.98
2019-01-10T15:57:19.169Z,1.97
2019-01-10T15:59:47.662Z,1.99
2019-01-10T16:02:16.105Z,1.98
2019-01-10T16:04:44.578Z,1.99
2019-01-10T16:07:13.013Z,2.01
2019-01-10T16:09:41.480Z,2.00
2019-01-10T16:12:09.915Z,1.99
2019-01-10T16:14:38.375Z,1.98
2019-01-10T16:17:06.877Z,1.97
2019-01-10T16:19:35.344Z,1.95
2019-01-10T16:22:03.774Z,1.97
2019-01-10T16:24:32.243Z,1.94
2019-01-10T16:27:00.683Z,1.94
2019-01-10T16:29:29.150Z,1.94
2019-01-10T16:31:57.582Z,1.93
2019-01-10T16:34:26.047Z,1.91
2019-01-10T16:36:54.485Z,1.91
2019-01-10T16:39:22.943Z,1.90
2019-01-10T16:41:51.388Z,1.87
2019-01-10T16:44:19.858Z,1.85
2019-01-10T16:46:48.297Z,1.83
2019-01-10T16:49:16.754Z,1.81
2019-01-10T16:51:45.203Z,1.80
2019-01-10T16:54:13.671Z,1.79
2019-01-10T16:56:42.110Z,1.78
2019-01-10T16:59:10.654Z,1.76
2019-01-10T17:01:39.094Z,1.76
2019-01-10T17:04:07.559Z,1.73
2019-01-10T17:06:38.400Z,1.73
2019-01-10T17:09:08.103Z,1.73
2019-01-10T17:11:36.545Z,1.73
2019-01-10T17:14:05.555Z,1.72
2019-01-10T17:16:34.220Z,1.71
2019-01-10T17:19:02.748Z,1.68
2019-01-10T17:21:31.195Z,1.68
2019-01-10T17:23:59.662Z,1.67
2019-01-10T17:26:28.101Z,1.68
2019-01-10T17:28:56.564Z,1.67
2019-01-10T17:31:25.005Z,1.66
2019-01-10T17:33:53.472Z,1.66
2019-01-10T17:36:21.906Z,1.65
2019-01-10T17:38:50.373Z,1.66
2019-01-10T17:41:18.813Z,1.66
2019-01-10T17:43:47.422Z,1.67
2019-01-10T17:46:15.853Z,1.65
2019-01-10T17:48:44.300Z,1.64
2019-01-10T17:51:12.759Z,1.63
2019-01-10T17:53:41.193Z,1.63
2019-01-10T17:56:09.662Z,1.62
2019-01-10T17:58:38.107Z,1.61
2019-01-10T18:01:06.735Z,1.59
2019-01-10T18:03:40.061Z,1.57
2019-01-10T18:06:05.531Z,1.54
2019-01-10T18:08:33.975Z,1.54
2019-01-10T18:11:02.443Z,1.54
2019-01-10T18:13:30.874Z,1.53
2019-01-10T18:15:59.339Z,1.53
2019-01-10T18:18:27.783Z,1.54
2019-01-10T18:20:56.377Z,1.56
2019-01-10T18:23:24.810Z,1.58
2019-01-10T18:25:53.265Z,1.59
2019-01-10T18:28:21.705Z,1.60
2019-01-10T18:30:50.165Z,1.60
2019-01-10T18:33:18.704Z,1.60
2019-01-10T18:35:47.172Z,1.60
2019-01-10T18:38:15.611Z,1.58
2019-01-10T18:40:44.070Z,1.57
2019-01-10T18:43:12.521Z,1.57
2019-01-10T18:45:40.984Z,1.57
2019-01-10T18:48:09.425Z,1.55
2019-01-10T18:50:37.888Z,1.55
2019-01-10T18:53:06.334Z,1.55
2019-01-10T18:55:34.807Z,1.53
2019-01-10T18:58:03.241Z,1.53
2019-01-10T19:00:31.710Z,1.51
2019-01-10T19:03:00.394Z,1.51
2019-01-10T19:05:28.856Z,1.52
2019-01-10T19:07:57.473Z,1.54
2019-01-10T19:10:25.942Z,1.53
2019-01-10T19:12:54.378Z,1.55
2019-01-10T19:15:23.020Z,1.55
2019-01-10T19:17:51.459Z,1.56
2019-01-10T19:20:22.634Z,1.57
2019-01-10T19:22:51.319Z,1.56
2019-01-10T19:25:19.776Z,1.56
2019-01-10T19:27:48.221Z,1.56
2019-01-10T19:30:19.326Z,1.56
2019-01-10T19:32:47.772Z,1.56
2019-01-10T19:35:16.277Z,1.57
2019-01-10T19:37:44.713Z,1.56
2019-01-10T19:40:16.449Z,1.57
2019-01-10T19:42:44.922Z,1.57
2019-01-10T19:45:16.200Z,1.57
2019-01-10T19:47:44.673Z,1.57
2019-01-10T19:50:18.304Z,1.57
2019-01-10T19:52:47.850Z,1.57
2019-01-10T19:55:18.025Z,1.58
2019-01-10T19:57:46.488Z,1.60
2019-01-10T20:00:26.681Z,1.60
2019-01-10T20:02:55.152Z,1.63
2019-01-10T20:05:23.665Z,1.63
2019-01-10T20:07:52.114Z,1.63
2019-01-10T20:10:20.574Z,1.65
2019-01-10T20:12:50.211Z,1.65
2019-01-10T20:15:18.649Z,1.66
2019-01-10T20:17:47.286Z,1.67
2019-01-10T20:20:27.537Z,1.69
2019-01-10T20:22:57.942Z,1.70
2019-01-10T20:25:26.455Z,1.72
2019-01-10T20:27:54.993Z,1.73
2019-01-10T20:30:23.434Z,1.76
2019-01-10T20:32:51.900Z,1.78
2019-01-10T20:35:20.340Z,1.82
2019-01-10T20:37:48.801Z,1.84
2019-01-10T20:40:19.058Z,1.88
2019-01-10T20:42:47.533Z,1.90
2019-01-10T20:45:16.213Z,1.92
2019-01-10T20:47:45.118Z,1.93
2019-01-10T20:50:15.512Z,1.94
2019-01-10T20:52:44.241Z,1.98
2019-01-10T20:55:14.765Z,1.99
2019-01-10T20:57:43.473Z,2.01
2019-01-10T21:00:26.364Z,2.04
2019-01-10T21:02:55.554Z,2.06
2019-01-10T21:05:24.288Z,2.07
2019-01-10T21:07:53.473Z,2.09
2019-01-10T21:10:23.812Z,2.09
2019-01-10T21:12:52.487Z,2.09
2019-01-10T21:15:23.734Z,2.08
2019-01-10T21:17:52.245Z,2.08
2019-01-10T21:20:20.789Z,2.09
2019-01-10T21:22:49.579Z,2.07
2019-01-10T21:25:18.473Z,2.06
2019-01-10T21:27:47.157Z,2.05
2019-01-10T21:30:18.373Z,2.03
2019-01-10T21:32:47.810Z,2.01
2019-01-10T21:35:16.423Z,2.00
2019-01-10T21:37:44.877Z,2.00
2019-01-10T21:40:19.171Z,1.99
2019-01-10T21:42:48.905Z,1.98
2019-01-10T21:45:19.089Z,1.99
2019-01-10T21:47:47.720Z,1.98
2019-01-10T21:50:22.138Z,1.99
2019-01-10T21:52:50.601Z,1.99
2019-01-10T21:55:19.043Z,2.01
2019-01-10T21:57:47.673Z,2.04
2019-01-10T22:00:19.515Z,2.03
2019-01-10T22:02:47.974Z,2.04
2019-01-10T22:05:16.412Z,2.06
2019-01-10T22:07:45.143Z,2.06
2019-01-10T22:10:13.958Z,2.05
2019-01-10T22:12:42.448Z,2.05
2019-01-10T22:15:15.543Z,2.04
2019-01-10T22:17:43.986Z,2.05
2019-01-10T22:20:20.461Z,2.04
2019-01-10T22:22:49.135Z,2.04
2019-01-10T22:25:17.600Z,2.01
2019-01-10T22:27:46.040Z,2.02
2019-01-10T22:30:19.736Z,2.01
2019-01-10T22:32:48.444Z,1.99
2019-01-10T22:35:18.941Z,1.99
2019-01-10T22:37:47.453Z,1.97
2019-01-10T22:40:18.435Z,1.96
2019-01-10T22:42:46.946Z,1.96
2019-01-10T22:45:16.455Z,1.97
2019-01-10T22:47:44.893Z,1.97
2019-01-10T22:50:15.998Z,1.98
2019-01-10T22:52:44.442Z,2.00
2019-01-10T22:55:14.254Z,1.99
2019-01-10T22:57:42.688Z,1.99
2019-01-10T23:00:57.081Z,1.96
2019-01-10T23:03:25.865Z,1.96
2019-01-10T23:05:54.338Z,1.94
2019-01-10T23:08:22.777Z,1.94
2019-01-10T23:10:51.242Z,1.94
2019-01-10T23:13:19.680Z,1.95
2019-01-10T23:15:48.150Z,1.97
2019-01-10T23:18:16.593Z,1.98
2019-01-10T23:20:48.338Z,1.99
2019-01-10T23:23:16.781Z,2.01
2019-01-10T23:25:50.059Z,2.03
2019-01-10T23:28:18.590Z,2.03
2019-01-10T23:30:49.683Z,2.04
2019-01-10T23:33:20.681Z,2.05
2019-01-10T23:35:52.051Z,2.05
2019-01-10T23:38:24.164Z,2.06
2019-01-10T23:40:52.622Z,2.07
2019-01-10T23:43:21.068Z,2.08
2019-01-10T23:45:49.534Z,2.07
2019-01-10T23:48:17.976Z,2.07
2019-01-10T23:50:46.516Z,2.05
2019-01-10T23:53:14.954Z,2.05
2019-01-10T23:55:43.425Z,2.05
2019-01-10T23:58:11.864Z,2.04
